sensor_id;sensor_type;location;lat;lon;timestamp;P1;durP1;ratioP1;P2;durP2;ratioP2
37365;SDS011;23239;51.504;7.456;2023-09-12T00:00:00;2.2;;;1.7;;
37365;SDS011;23239;51.504;7.456;2023-09-12T00:01:03;2.2;;;1.7;;
37365;SDS011;23239;51.504;7.456;2023-09-12T00:02:00;2.4;;;1.9;;
37365;SDS011;23239;51.504;7.456;2023-09-12T00:03:00;2.4;;;1.9;;
37365;SDS011;23239;51.504;7.456;2023-09-12T00:04:00;2.4;;;1.9;;
37365;SDS011;23239;51.504;7.456;2023-09-12T00:05:00;2.4;;;1.9;;
37365;SDS011;23239;51.504;7.456;2023-09-12T00:06:01;2.4;;;1.9;;
37365;SDS011;23239;51.504;7.456;2023-09-12T00:07:00;4.8;;;2.1;;
37365;SDS011;23239;51.504;7.456;2023-09-12T00:08:00;4.8;;;2.1;;
37365;SDS011;23239;51.504;7.456;2023-09-12T00:09:00;4.8;;;2.1;;
37365;SDS011;23239;51.504;7.456;2023-09-12T00:10:00;4.8;;;2.1;;
37365;SDS011;23239;51.504;7.456;2023-09-12T00:11:01;4.8;;;2.1;;
37365;SDS011;23239;51.504;7.456;2023-09-12T00:12:00;3.4;;;2.2;;
37365;SDS011;23239;51.504;7.456;2023-09-12T00:13:00;3.4;;;2.2;;
37365;SDS011;23239;51.504;7.456;2023-09-12T00:14:00;3.4;;;2.2;;
37365;SDS011;23239;51.504;7.456;2023-09-12T00:15:00;3.4;;;2.2;;
37365;SDS011;23239;51.504;7.456;2023-09-12T00:16:00;3.4;;;2.2;;
37365;SDS011;23239;51.504;7.456;2023-09-12T00:17:00;3.5;;;2.3;;
37365;SDS011;23239;51.504;7.456;2023-09-12T00:18:00;3.5;;;2.3;;
37365;SDS011;23239;51.504;7.456;2023-09-12T00:19:00;3.5;;;2.3;;
37365;SDS011;23239;51.504;7.456;2023-09-12T00:20:00;3.5;;;2.3;;
37365;SDS011;23239;51.504;7.456;2023-09-12T00:21:00;3.5;;;2.3;;
37365;SDS011;23239;51.504;7.456;2023-09-12T00:22:00;3.3;;;2.2;;
37365;SDS011;23239;51.504;7.456;2023-09-12T00:23:00;3.3;;;2.2;;
37365;SDS011;23239;51.504;7.456;2023-09-12T00:24:00;3.3;;;2.2;;
37365;SDS011;23239;51.504;7.456;2023-09-12T00:25:00;3.3;;;2.2;;
37365;SDS011;23239;51.504;7.456;2023-09-12T00:26:00;3.3;;;2.2;;
37365;SDS011;23239;51.504;7.456;2023-09-12T00:27:00;4.0;;;2.5;;
37365;SDS011;23239;51.504;7.456;2023-09-12T00:28:00;4.0;;;2.5;;
37365;SDS011;23239;51.504;7.456;2023-09-12T00:29:00;4.0;;;2.5;;
37365;SDS011;23239;51.504;7.456;2023-09-12T00:30:00;4.0;;;2.5;;
37365;SDS011;23239;51.504;7.456;2023-09-12T00:31:00;4.0;;;2.5;;
37365;SDS011;23239;51.504;7.456;2023-09-12T00:32:00;3.9;;;3.0;;
37365;SDS011;23239;51.504;7.456;2023-09-12T00:33:00;3.9;;;3.0;;
37365;SDS011;23239;51.504;7.456;2023-09-12T00:34:00;3.9;;;3.0;;
37365;SDS011;23239;51.504;7.456;2023-09-12T00:35:00;3.9;;;3.0;;
37365;SDS011;23239;51.504;7.456;2023-09-12T00:36:00;3.9;;;3.0;;
37365;SDS011;23239;51.504;7.456;2023-09-12T00:37:00;5.0;;;3.5;;
37365;SDS011;23239;51.504;7.456;2023-09-12T00:38:00;5.0;;;3.5;;
37365;SDS011;23239;51.504;7.456;2023-09-12T00:39:00;5.0;;;3.5;;
37365;SDS011;23239;51.504;7.456;2023-09-12T00:40:00;5.0;;;3.5;;
37365;SDS011;23239;51.504;7.456;2023-09-12T00:41:00;5.0;;;3.5;;
37365;SDS011;23239;51.504;7.456;2023-09-12T00:42:00;5.7;;;3.5;;
37365;SDS011;23239;51.504;7.456;2023-09-12T00:43:00;5.7;;;3.5;;
37365;SDS011;23239;51.504;7.456;2023-09-12T00:44:00;5.7;;;3.5;;
37365;SDS011;23239;51.504;7.456;2023-09-12T00:45:00;5.7;;;3.5;;
37365;SDS011;23239;51.504;7.456;2023-09-12T00:46:00;5.7;;;3.5;;
37365;SDS011;23239;51.504;7.456;2023-09-12T00:47:00;5.4;;;3.4;;
37365;SDS011;23239;51.504;7.456;2023-09-12T00:48:00;5.4;;;3.4;;
37365;SDS011;23239;51.504;7.456;2023-09-12T00:49:00;5.4;;;3.4;;
37365;SDS011;23239;51.504;7.456;2023-09-12T00:50:00;5.4;;;3.4;;
37365;SDS011;23239;51.504;7.456;2023-09-12T00:51:00;5.4;;;3.4;;
37365;SDS011;23239;51.504;7.456;2023-09-12T00:52:00;7.3;;;3.4;;
37365;SDS011;23239;51.504;7.456;2023-09-12T00:53:01;7.3;;;3.4;;
37365;SDS011;23239;51.504;7.456;2023-09-12T00:54:00;7.3;;;3.4;;
37365;SDS011;23239;51.504;7.456;2023-09-12T00:55:00;7.3;;;3.4;;
37365;SDS011;23239;51.504;7.456;2023-09-12T00:56:00;7.3;;;3.4;;
37365;SDS011;23239;51.504;7.456;2023-09-12T00:57:00;5.8;;;3.5;;
37365;SDS011;23239;51.504;7.456;2023-09-12T00:58:00;5.8;;;3.5;;
37365;SDS011;23239;51.504;7.456;2023-09-12T00:59:00;5.8;;;3.5;;
37365;SDS011;23239;51.504;7.456;2023-09-12T01:00:01;5.8;;;3.5;;
37365;SDS011;23239;51.504;7.456;2023-09-12T01:01:00;5.8;;;3.5;;
37365;SDS011;23239;51.504;7.456;2023-09-12T01:02:00;5.9;;;3.5;;
37365;SDS011;23239;51.504;7.456;2023-09-12T01:03:00;5.9;;;3.5;;
37365;SDS011;23239;51.504;7.456;2023-09-12T01:04:00;5.9;;;3.5;;
37365;SDS011;23239;51.504;7.456;2023-09-12T01:05:00;5.9;;;3.5;;
37365;SDS011;23239;51.504;7.456;2023-09-12T01:06:00;5.9;;;3.5;;
37365;SDS011;23239;51.504;7.456;2023-09-12T01:07:00;4.2;;;3.3;;
37365;SDS011;23239;51.504;7.456;2023-09-12T01:08:00;4.2;;;3.3;;
37365;SDS011;23239;51.504;7.456;2023-09-12T01:09:00;4.2;;;3.3;;
37365;SDS011;23239;51.504;7.456;2023-09-12T01:10:00;4.2;;;3.3;;
37365;SDS011;23239;51.504;7.456;2023-09-12T01:11:00;4.2;;;3.3;;
37365;SDS011;23239;51.504;7.456;2023-09-12T01:12:00;6.2;;;3.7;;
37365;SDS011;23239;51.504;7.456;2023-09-12T01:13:00;6.2;;;3.7;;
37365;SDS011;23239;51.504;7.456;2023-09-12T01:14:00;6.2;;;3.7;;
37365;SDS011;23239;51.504;7.456;2023-09-12T01:15:00;6.2;;;3.7;;
37365;SDS011;23239;51.504;7.456;2023-09-12T01:16:00;6.2;;;3.7;;
37365;SDS011;23239;51.504;7.456;2023-09-12T01:17:00;4.5;;;3.5;;
37365;SDS011;23239;51.504;7.456;2023-09-12T01:18:00;4.5;;;3.5;;
37365;SDS011;23239;51.504;7.456;2023-09-12T01:19:00;4.5;;;3.5;;
37365;SDS011;23239;51.504;7.456;2023-09-12T01:20:00;4.5;;;3.5;;
37365;SDS011;23239;51.504;7.456;2023-09-12T01:22:10;4.3;;;3.4;;
37365;SDS011;23239;51.504;7.456;2023-09-12T01:23:05;4.3;;;3.4;;
37365;SDS011;23239;51.504;7.456;2023-09-12T01:24:03;4.3;;;3.4;;
37365;SDS011;23239;51.504;7.456;2023-09-12T01:25:06;4.3;;;3.4;;
37365;SDS011;23239;51.504;7.456;2023-09-12T01:26:01;4.3;;;3.4;;
37365;SDS011;23239;51.504;7.456;2023-09-12T01:27:08;4.7;;;3.6;;
37365;SDS011;23239;51.504;7.456;2023-09-12T01:28:01;4.7;;;3.6;;
37365;SDS011;23239;51.504;7.456;2023-09-12T01:29:00;4.7;;;3.6;;
37365;SDS011;23239;51.504;7.456;2023-09-12T01:30:01;4.7;;;3.6;;
37365;SDS011;23239;51.504;7.456;2023-09-12T01:31:00;4.7;;;3.6;;
37365;SDS011;23239;51.504;7.456;2023-09-12T01:32:00;5.6;;;3.9;;
37365;SDS011;23239;51.504;7.456;2023-09-12T01:33:00;5.6;;;3.9;;
37365;SDS011;23239;51.504;7.456;2023-09-12T01:34:08;5.6;;;3.9;;
37365;SDS011;23239;51.504;7.456;2023-09-12T01:35:00;5.6;;;3.9;;
37365;SDS011;23239;51.504;7.456;2023-09-12T01:36:00;5.6;;;3.9;;
37365;SDS011;23239;51.504;7.456;2023-09-12T01:37:00;6.0;;;4.8;;
37365;SDS011;23239;51.504;7.456;2023-09-12T01:38:00;6.0;;;4.8;;
37365;SDS011;23239;51.504;7.456;2023-09-12T01:39:00;6.0;;;4.8;;
37365;SDS011;23239;51.504;7.456;2023-09-12T01:40:00;6.0;;;4.8;;
37365;SDS011;23239;51.504;7.456;2023-09-12T01:41:00;6.0;;;4.8;;
37365;SDS011;23239;51.504;7.456;2023-09-12T01:42:00;7.7;;;5.4;;
37365;SDS011;23239;51.504;7.456;2023-09-12T01:43:00;7.7;;;5.4;;
37365;SDS011;23239;51.504;7.456;2023-09-12T01:44:00;7.7;;;5.4;;
37365;SDS011;23239;51.504;7.456;2023-09-12T01:45:00;7.7;;;5.4;;
37365;SDS011;23239;51.504;7.456;2023-09-12T01:46:00;7.7;;;5.4;;
37365;SDS011;23239;51.504;7.456;2023-09-12T01:47:00;8.2;;;5.4;;
37365;SDS011;23239;51.504;7.456;2023-09-12T01:48:02;8.2;;;5.4;;
37365;SDS011;23239;51.504;7.456;2023-09-12T01:49:00;8.2;;;5.4;;
37365;SDS011;23239;51.504;7.456;2023-09-12T01:50:00;8.2;;;5.4;;
37365;SDS011;23239;51.504;7.456;2023-09-12T01:51:01;8.2;;;5.4;;
37365;SDS011;23239;51.504;7.456;2023-09-12T01:52:00;8.0;;;5.1;;
37365;SDS011;23239;51.504;7.456;2023-09-12T01:53:00;8.0;;;5.1;;
37365;SDS011;23239;51.504;7.456;2023-09-12T01:54:00;8.0;;;5.1;;
37365;SDS011;23239;51.504;7.456;2023-09-12T01:55:00;8.0;;;5.1;;
37365;SDS011;23239;51.504;7.456;2023-09-12T01:56:00;8.0;;;5.1;;
37365;SDS011;23239;51.504;7.456;2023-09-12T01:57:00;7.9;;;5.6;;
37365;SDS011;23239;51.504;7.456;2023-09-12T01:58:00;7.9;;;5.6;;
37365;SDS011;23239;51.504;7.456;2023-09-12T01:59:00;7.9;;;5.6;;
37365;SDS011;23239;51.504;7.456;2023-09-12T02:00:00;7.9;;;5.6;;
37365;SDS011;23239;51.504;7.456;2023-09-12T02:01:00;7.9;;;5.6;;
37365;SDS011;23239;51.504;7.456;2023-09-12T02:02:00;11.4;;;7.4;;
37365;SDS011;23239;51.504;7.456;2023-09-12T02:03:01;11.4;;;7.4;;
37365;SDS011;23239;51.504;7.456;2023-09-12T02:04:00;11.4;;;7.4;;
37365;SDS011;23239;51.504;7.456;2023-09-12T02:05:04;11.4;;;7.4;;
37365;SDS011;23239;51.504;7.456;2023-09-12T02:06:00;11.4;;;7.4;;
37365;SDS011;23239;51.504;7.456;2023-09-12T02:07:00;13.3;;;8.5;;
37365;SDS011;23239;51.504;7.456;2023-09-12T02:08:00;13.3;;;8.5;;
37365;SDS011;23239;51.504;7.456;2023-09-12T02:09:00;13.3;;;8.5;;
37365;SDS011;23239;51.504;7.456;2023-09-12T02:10:00;13.3;;;8.5;;
37365;SDS011;23239;51.504;7.456;2023-09-12T02:11:00;13.3;;;8.5;;
37365;SDS011;23239;51.504;7.456;2023-09-12T02:12:00;12.4;;;8.5;;
37365;SDS011;23239;51.504;7.456;2023-09-12T02:13:00;12.4;;;8.5;;
37365;SDS011;23239;51.504;7.456;2023-09-12T02:14:00;12.4;;;8.5;;
37365;SDS011;23239;51.504;7.456;2023-09-12T02:15:00;12.4;;;8.5;;
37365;SDS011;23239;51.504;7.456;2023-09-12T02:16:00;12.4;;;8.5;;
37365;SDS011;23239;51.504;7.456;2023-09-12T02:17:00;10.7;;;8.3;;
37365;SDS011;23239;51.504;7.456;2023-09-12T02:18:00;10.7;;;8.3;;
37365;SDS011;23239;51.504;7.456;2023-09-12T02:19:00;10.7;;;8.3;;
37365;SDS011;23239;51.504;7.456;2023-09-12T02:20:00;10.7;;;8.3;;
37365;SDS011;23239;51.504;7.456;2023-09-12T02:21:00;10.7;;;8.3;;
37365;SDS011;23239;51.504;7.456;2023-09-12T02:22:00;11.7;;;8.2;;
37365;SDS011;23239;51.504;7.456;2023-09-12T02:23:00;11.7;;;8.2;;
37365;SDS011;23239;51.504;7.456;2023-09-12T02:24:00;11.7;;;8.2;;
37365;SDS011;23239;51.504;7.456;2023-09-12T02:25:00;11.7;;;8.2;;
37365;SDS011;23239;51.504;7.456;2023-09-12T02:26:00;11.7;;;8.2;;
37365;SDS011;23239;51.504;7.456;2023-09-12T02:27:00;10.6;;;7.4;;
37365;SDS011;23239;51.504;7.456;2023-09-12T02:28:00;10.6;;;7.4;;
37365;SDS011;23239;51.504;7.456;2023-09-12T02:29:00;10.6;;;7.4;;
37365;SDS011;23239;51.504;7.456;2023-09-12T02:30:00;10.6;;;7.4;;
37365;SDS011;23239;51.504;7.456;2023-09-12T02:31:00;10.6;;;7.4;;
37365;SDS011;23239;51.504;7.456;2023-09-12T02:32:00;9.7;;;6.6;;
37365;SDS011;23239;51.504;7.456;2023-09-12T02:33:00;9.7;;;6.6;;
37365;SDS011;23239;51.504;7.456;2023-09-12T02:34:00;9.7;;;6.6;;
37365;SDS011;23239;51.504;7.456;2023-09-12T02:35:00;9.7;;;6.6;;
37365;SDS011;23239;51.504;7.456;2023-09-12T02:36:00;9.7;;;6.6;;
37365;SDS011;23239;51.504;7.456;2023-09-12T02:37:00;9.7;;;6.6;;
37365;SDS011;23239;51.504;7.456;2023-09-12T02:38:00;9.4;;;7.1;;
37365;SDS011;23239;51.504;7.456;2023-09-12T02:39:00;9.4;;;7.1;;
37365;SDS011;23239;51.504;7.456;2023-09-12T02:40:00;9.4;;;7.1;;
37365;SDS011;23239;51.504;7.456;2023-09-12T02:41:00;9.4;;;7.1;;
37365;SDS011;23239;51.504;7.456;2023-09-12T02:42:00;9.4;;;7.1;;
37365;SDS011;23239;51.504;7.456;2023-09-12T02:43:00;11.8;;;9.4;;
37365;SDS011;23239;51.504;7.456;2023-09-12T02:44:00;11.8;;;9.4;;
37365;SDS011;23239;51.504;7.456;2023-09-12T02:45:00;11.8;;;9.4;;
37365;SDS011;23239;51.504;7.456;2023-09-12T02:46:00;11.8;;;9.4;;
37365;SDS011;23239;51.504;7.456;2023-09-12T02:47:00;11.8;;;9.4;;
37365;SDS011;23239;51.504;7.456;2023-09-12T02:48:00;15.0;;;10.0;;
37365;SDS011;23239;51.504;7.456;2023-09-12T02:49:00;15.0;;;10.0;;
37365;SDS011;23239;51.504;7.456;2023-09-12T02:50:00;15.0;;;10.0;;
37365;SDS011;23239;51.504;7.456;2023-09-12T02:51:00;15.0;;;10.0;;
37365;SDS011;23239;51.504;7.456;2023-09-12T02:52:00;15.0;;;10.0;;
37365;SDS011;23239;51.504;7.456;2023-09-12T02:53:01;16.2;;;9.8;;
37365;SDS011;23239;51.504;7.456;2023-09-12T02:54:00;16.2;;;9.8;;
37365;SDS011;23239;51.504;7.456;2023-09-12T02:55:00;16.2;;;9.8;;
37365;SDS011;23239;51.504;7.456;2023-09-12T02:56:00;16.2;;;9.8;;
37365;SDS011;23239;51.504;7.456;2023-09-12T02:57:00;16.2;;;9.8;;
37365;SDS011;23239;51.504;7.456;2023-09-12T02:58:00;12.6;;;9.8;;
37365;SDS011;23239;51.504;7.456;2023-09-12T02:59:00;12.6;;;9.8;;
37365;SDS011;23239;51.504;7.456;2023-09-12T03:00:00;12.6;;;9.8;;
37365;SDS011;23239;51.504;7.456;2023-09-12T03:01:00;12.6;;;9.8;;
37365;SDS011;23239;51.504;7.456;2023-09-12T03:02:00;12.6;;;9.8;;
37365;SDS011;23239;51.504;7.456;2023-09-12T03:03:00;17.1;;;12.9;;
37365;SDS011;23239;51.504;7.456;2023-09-12T03:04:00;17.1;;;12.9;;
37365;SDS011;23239;51.504;7.456;2023-09-12T03:05:00;17.1;;;12.9;;
37365;SDS011;23239;51.504;7.456;2023-09-12T03:06:00;17.1;;;12.9;;
37365;SDS011;23239;51.504;7.456;2023-09-12T03:07:00;17.1;;;12.9;;
37365;SDS011;23239;51.504;7.456;2023-09-12T03:08:00;16.5;;;12.8;;
37365;SDS011;23239;51.504;7.456;2023-09-12T03:09:00;16.5;;;12.8;;
37365;SDS011;23239;51.504;7.456;2023-09-12T03:10:00;16.5;;;12.8;;
37365;SDS011;23239;51.504;7.456;2023-09-12T03:11:00;16.5;;;12.8;;
37365;SDS011;23239;51.504;7.456;2023-09-12T03:12:00;16.5;;;12.8;;
37365;SDS011;23239;51.504;7.456;2023-09-12T03:13:00;17.9;;;12.0;;
37365;SDS011;23239;51.504;7.456;2023-09-12T03:14:00;17.9;;;12.0;;
37365;SDS011;23239;51.504;7.456;2023-09-12T03:15:00;17.9;;;12.0;;
37365;SDS011;23239;51.504;7.456;2023-09-12T03:16:00;17.9;;;12.0;;
37365;SDS011;23239;51.504;7.456;2023-09-12T03:17:00;17.9;;;12.0;;
37365;SDS011;23239;51.504;7.456;2023-09-12T03:18:00;16.7;;;11.4;;
37365;SDS011;23239;51.504;7.456;2023-09-12T03:19:00;16.7;;;11.4;;
37365;SDS011;23239;51.504;7.456;2023-09-12T03:20:00;16.7;;;11.4;;
37365;SDS011;23239;51.504;7.456;2023-09-12T03:21:00;16.7;;;11.4;;
37365;SDS011;23239;51.504;7.456;2023-09-12T03:22:00;16.7;;;11.4;;
37365;SDS011;23239;51.504;7.456;2023-09-12T03:23:00;15.9;;;11.8;;
37365;SDS011;23239;51.504;7.456;2023-09-12T03:24:00;15.9;;;11.8;;
37365;SDS011;23239;51.504;7.456;2023-09-12T03:25:00;15.9;;;11.8;;
37365;SDS011;23239;51.504;7.456;2023-09-12T03:26:01;15.9;;;11.8;;
37365;SDS011;23239;51.504;7.456;2023-09-12T03:27:00;15.9;;;11.8;;
37365;SDS011;23239;51.504;7.456;2023-09-12T03:28:00;14.9;;;11.7;;
37365;SDS011;23239;51.504;7.456;2023-09-12T03:29:00;14.9;;;11.7;;
37365;SDS011;23239;51.504;7.456;2023-09-12T03:30:00;14.9;;;11.7;;
37365;SDS011;23239;51.504;7.456;2023-09-12T03:31:03;14.9;;;11.7;;
37365;SDS011;23239;51.504;7.456;2023-09-12T03:32:00;14.9;;;11.7;;
37365;SDS011;23239;51.504;7.456;2023-09-12T03:33:00;14.1;;;10.3;;
37365;SDS011;23239;51.504;7.456;2023-09-12T03:34:00;14.1;;;10.3;;
37365;SDS011;23239;51.504;7.456;2023-09-12T03:35:00;14.1;;;10.3;;
37365;SDS011;23239;51.504;7.456;2023-09-12T03:36:00;14.1;;;10.3;;
37365;SDS011;23239;51.504;7.456;2023-09-12T03:37:00;14.1;;;10.3;;
37365;SDS011;23239;51.504;7.456;2023-09-12T03:38:00;13.7;;;10.8;;
37365;SDS011;23239;51.504;7.456;2023-09-12T03:39:00;13.7;;;10.8;;
37365;SDS011;23239;51.504;7.456;2023-09-12T03:40:00;13.7;;;10.8;;
37365;SDS011;23239;51.504;7.456;2023-09-12T03:41:00;13.7;;;10.8;;
37365;SDS011;23239;51.504;7.456;2023-09-12T03:42:00;13.7;;;10.8;;
37365;SDS011;23239;51.504;7.456;2023-09-12T03:43:00;13.8;;;11.5;;
37365;SDS011;23239;51.504;7.456;2023-09-12T03:44:00;13.8;;;11.5;;
37365;SDS011;23239;51.504;7.456;2023-09-12T03:45:00;13.8;;;11.5;;
37365;SDS011;23239;51.504;7.456;2023-09-12T03:46:00;13.8;;;11.5;;
37365;SDS011;23239;51.504;7.456;2023-09-12T03:47:00;13.8;;;11.5;;
37365;SDS011;23239;51.504;7.456;2023-09-12T03:48:00;14.6;;;11.0;;
37365;SDS011;23239;51.504;7.456;2023-09-12T03:49:00;14.6;;;11.0;;
37365;SDS011;23239;51.504;7.456;2023-09-12T03:50:00;14.6;;;11.0;;
37365;SDS011;23239;51.504;7.456;2023-09-12T03:51:00;14.6;;;11.0;;
37365;SDS011;23239;51.504;7.456;2023-09-12T03:52:00;14.6;;;11.0;;
37365;SDS011;23239;51.504;7.456;2023-09-12T03:53:00;22.1;;;14.3;;
37365;SDS011;23239;51.504;7.456;2023-09-12T03:54:00;22.1;;;14.3;;
37365;SDS011;23239;51.504;7.456;2023-09-12T03:55:00;22.1;;;14.3;;
37365;SDS011;23239;51.504;7.456;2023-09-12T03:56:00;22.1;;;14.3;;
37365;SDS011;23239;51.504;7.456;2023-09-12T03:57:00;22.1;;;14.3;;
37365;SDS011;23239;51.504;7.456;2023-09-12T03:58:00;23.1;;;14.9;;
37365;SDS011;23239;51.504;7.456;2023-09-12T03:59:00;23.1;;;14.9;;
37365;SDS011;23239;51.504;7.456;2023-09-12T04:00:00;23.1;;;14.9;;
37365;SDS011;23239;51.504;7.456;2023-09-12T04:01:00;23.1;;;14.9;;
37365;SDS011;23239;51.504;7.456;2023-09-12T04:02:01;23.1;;;14.9;;
37365;SDS011;23239;51.504;7.456;2023-09-12T04:03:00;20.1;;;14.7;;
37365;SDS011;23239;51.504;7.456;2023-09-12T04:04:00;20.1;;;14.7;;
37365;SDS011;23239;51.504;7.456;2023-09-12T04:05:00;20.1;;;14.7;;
37365;SDS011;23239;51.504;7.456;2023-09-12T04:06:00;20.1;;;14.7;;
37365;SDS011;23239;51.504;7.456;2023-09-12T04:07:00;20.1;;;14.7;;
37365;SDS011;23239;51.504;7.456;2023-09-12T04:08:00;17.0;;;12.8;;
37365;SDS011;23239;51.504;7.456;2023-09-12T04:09:00;17.0;;;12.8;;
37365;SDS011;23239;51.504;7.456;2023-09-12T04:10:00;17.0;;;12.8;;
37365;SDS011;23239;51.504;7.456;2023-09-12T04:11:00;17.0;;;12.8;;
37365;SDS011;23239;51.504;7.456;2023-09-12T04:12:00;17.0;;;12.8;;
37365;SDS011;23239;51.504;7.456;2023-09-12T04:13:00;19.5;;;13.8;;
37365;SDS011;23239;51.504;7.456;2023-09-12T04:14:00;19.5;;;13.8;;
37365;SDS011;23239;51.504;7.456;2023-09-12T04:15:00;19.5;;;13.8;;
37365;SDS011;23239;51.504;7.456;2023-09-12T04:16:00;19.5;;;13.8;;
37365;SDS011;23239;51.504;7.456;2023-09-12T04:17:00;19.5;;;13.8;;
37365;SDS011;23239;51.504;7.456;2023-09-12T04:18:00;19.4;;;13.4;;
37365;SDS011;23239;51.504;7.456;2023-09-12T04:19:00;19.4;;;13.4;;
37365;SDS011;23239;51.504;7.456;2023-09-12T04:20:00;19.4;;;13.4;;
37365;SDS011;23239;51.504;7.456;2023-09-12T04:21:00;19.4;;;13.4;;
37365;SDS011;23239;51.504;7.456;2023-09-12T04:22:00;19.4;;;13.4;;
37365;SDS011;23239;51.504;7.456;2023-09-12T04:23:00;15.7;;;12.7;;
37365;SDS011;23239;51.504;7.456;2023-09-12T04:24:00;15.7;;;12.7;;
37365;SDS011;23239;51.504;7.456;2023-09-12T04:25:00;15.7;;;12.7;;
37365;SDS011;23239;51.504;7.456;2023-09-12T04:26:00;15.7;;;12.7;;
37365;SDS011;23239;51.504;7.456;2023-09-12T04:27:00;15.7;;;12.7;;
37365;SDS011;23239;51.504;7.456;2023-09-12T04:28:00;19.9;;;12.9;;
37365;SDS011;23239;51.504;7.456;2023-09-12T04:29:00;19.9;;;12.9;;
37365;SDS011;23239;51.504;7.456;2023-09-12T04:30:00;19.9;;;12.9;;
37365;SDS011;23239;51.504;7.456;2023-09-12T04:31:01;19.9;;;12.9;;
37365;SDS011;23239;51.504;7.456;2023-09-12T04:32:01;19.9;;;12.9;;
37365;SDS011;23239;51.504;7.456;2023-09-12T04:33:00;22.4;;;14.2;;
37365;SDS011;23239;51.504;7.456;2023-09-12T04:34:00;22.4;;;14.2;;
37365;SDS011;23239;51.504;7.456;2023-09-12T04:35:00;22.4;;;14.2;;
37365;SDS011;23239;51.504;7.456;2023-09-12T04:36:00;22.4;;;14.2;;
37365;SDS011;23239;51.504;7.456;2023-09-12T04:37:00;22.4;;;14.2;;
37365;SDS011;23239;51.504;7.456;2023-09-12T04:38:00;17.5;;;12.2;;
37365;SDS011;23239;51.504;7.456;2023-09-12T04:39:00;17.5;;;12.2;;
37365;SDS011;23239;51.504;7.456;2023-09-12T04:40:00;17.5;;;12.2;;
37365;SDS011;23239;51.504;7.456;2023-09-12T04:41:01;17.5;;;12.2;;
37365;SDS011;23239;51.504;7.456;2023-09-12T04:42:00;17.5;;;12.2;;
37365;SDS011;23239;51.504;7.456;2023-09-12T04:43:00;15.9;;;12.0;;
37365;SDS011;23239;51.504;7.456;2023-09-12T04:44:00;15.9;;;12.0;;
37365;SDS011;23239;51.504;7.456;2023-09-12T04:45:00;15.9;;;12.0;;
37365;SDS011;23239;51.504;7.456;2023-09-12T04:46:00;15.9;;;12.0;;
37365;SDS011;23239;51.504;7.456;2023-09-12T04:47:00;15.9;;;12.0;;
37365;SDS011;23239;51.504;7.456;2023-09-12T04:48:00;15.0;;;10.8;;
37365;SDS011;23239;51.504;7.456;2023-09-12T04:49:00;15.0;;;10.8;;
37365;SDS011;23239;51.504;7.456;2023-09-12T04:50:00;15.0;;;10.8;;
37365;SDS011;23239;51.504;7.456;2023-09-12T04:51:00;15.0;;;10.8;;
37365;SDS011;23239;51.504;7.456;2023-09-12T04:52:00;15.0;;;10.8;;
37365;SDS011;23239;51.504;7.456;2023-09-12T04:53:00;14.5;;;10.8;;
37365;SDS011;23239;51.504;7.456;2023-09-12T04:54:00;14.5;;;10.8;;
37365;SDS011;23239;51.504;7.456;2023-09-12T04:55:00;14.5;;;10.8;;
37365;SDS011;23239;51.504;7.456;2023-09-12T04:56:00;14.5;;;10.8;;
37365;SDS011;23239;51.504;7.456;2023-09-12T04:57:00;14.5;;;10.8;;
37365;SDS011;23239;51.504;7.456;2023-09-12T04:58:00;14.1;;;10.4;;
37365;SDS011;23239;51.504;7.456;2023-09-12T04:59:00;14.1;;;10.4;;
37365;SDS011;23239;51.504;7.456;2023-09-12T05:00:00;14.1;;;10.4;;
37365;SDS011;23239;51.504;7.456;2023-09-12T05:01:00;14.1;;;10.4;;
37365;SDS011;23239;51.504;7.456;2023-09-12T05:02:00;14.1;;;10.4;;
37365;SDS011;23239;51.504;7.456;2023-09-12T05:03:01;12.4;;;9.5;;
37365;SDS011;23239;51.504;7.456;2023-09-12T05:04:00;12.4;;;9.5;;
37365;SDS011;23239;51.504;7.456;2023-09-12T05:05:00;12.4;;;9.5;;
37365;SDS011;23239;51.504;7.456;2023-09-12T05:06:00;12.4;;;9.5;;
37365;SDS011;23239;51.504;7.456;2023-09-12T05:07:00;12.4;;;9.5;;
37365;SDS011;23239;51.504;7.456;2023-09-12T05:08:00;13.3;;;9.5;;
37365;SDS011;23239;51.504;7.456;2023-09-12T05:09:00;13.3;;;9.5;;
37365;SDS011;23239;51.504;7.456;2023-09-12T05:10:00;13.3;;;9.5;;
37365;SDS011;23239;51.504;7.456;2023-09-12T05:11:00;13.3;;;9.5;;
37365;SDS011;23239;51.504;7.456;2023-09-12T05:12:00;13.3;;;9.5;;
37365;SDS011;23239;51.504;7.456;2023-09-12T05:13:00;13.5;;;9.3;;
37365;SDS011;23239;51.504;7.456;2023-09-12T05:14:00;13.5;;;9.3;;
37365;SDS011;23239;51.504;7.456;2023-09-12T05:15:00;13.5;;;9.3;;
37365;SDS011;23239;51.504;7.456;2023-09-12T05:16:01;13.5;;;9.3;;
37365;SDS011;23239;51.504;7.456;2023-09-12T05:17:00;13.5;;;9.3;;
37365;SDS011;23239;51.504;7.456;2023-09-12T05:18:00;12.4;;;9.9;;
37365;SDS011;23239;51.504;7.456;2023-09-12T05:19:00;12.4;;;9.9;;
37365;SDS011;23239;51.504;7.456;2023-09-12T05:20:00;12.4;;;9.9;;
37365;SDS011;23239;51.504;7.456;2023-09-12T05:21:00;12.4;;;9.9;;
37365;SDS011;23239;51.504;7.456;2023-09-12T05:22:00;12.4;;;9.9;;
37365;SDS011;23239;51.504;7.456;2023-09-12T05:23:00;12.5;;;9.2;;
37365;SDS011;23239;51.504;7.456;2023-09-12T05:24:00;12.5;;;9.2;;
37365;SDS011;23239;51.504;7.456;2023-09-12T05:25:00;12.5;;;9.2;;
37365;SDS011;23239;51.504;7.456;2023-09-12T05:26:00;12.5;;;9.2;;
37365;SDS011;23239;51.504;7.456;2023-09-12T05:27:00;12.5;;;9.2;;
37365;SDS011;23239;51.504;7.456;2023-09-12T05:28:00;12.7;;;10.0;;
37365;SDS011;23239;51.504;7.456;2023-09-12T05:29:00;12.7;;;10.0;;
37365;SDS011;23239;51.504;7.456;2023-09-12T05:30:00;12.7;;;10.0;;
37365;SDS011;23239;51.504;7.456;2023-09-12T05:31:00;12.7;;;10.0;;
37365;SDS011;23239;51.504;7.456;2023-09-12T05:32:00;12.7;;;10.0;;
37365;SDS011;23239;51.504;7.456;2023-09-12T05:33:01;14.7;;;11.1;;
37365;SDS011;23239;51.504;7.456;2023-09-12T05:34:00;14.7;;;11.1;;
37365;SDS011;23239;51.504;7.456;2023-09-12T05:35:00;14.7;;;11.1;;
37365;SDS011;23239;51.504;7.456;2023-09-12T05:36:00;14.7;;;11.1;;
37365;SDS011;23239;51.504;7.456;2023-09-12T05:37:00;14.7;;;11.1;;
37365;SDS011;23239;51.504;7.456;2023-09-12T05:38:00;13.9;;;11.5;;
37365;SDS011;23239;51.504;7.456;2023-09-12T05:39:00;13.9;;;11.5;;
37365;SDS011;23239;51.504;7.456;2023-09-12T05:40:00;13.9;;;11.5;;
37365;SDS011;23239;51.504;7.456;2023-09-12T05:41:00;13.9;;;11.5;;
37365;SDS011;23239;51.504;7.456;2023-09-12T05:42:00;13.9;;;11.5;;
37365;SDS011;23239;51.504;7.456;2023-09-12T05:43:00;14.4;;;11.3;;
37365;SDS011;23239;51.504;7.456;2023-09-12T05:44:00;14.4;;;11.3;;
37365;SDS011;23239;51.504;7.456;2023-09-12T05:45:00;14.4;;;11.3;;
37365;SDS011;23239;51.504;7.456;2023-09-12T05:46:00;14.4;;;11.3;;
37365;SDS011;23239;51.504;7.456;2023-09-12T05:47:00;14.4;;;11.3;;
37365;SDS011;23239;51.504;7.456;2023-09-12T05:48:00;14.2;;;10.9;;
37365;SDS011;23239;51.504;7.456;2023-09-12T05:49:00;14.2;;;10.9;;
37365;SDS011;23239;51.504;7.456;2023-09-12T05:50:00;14.2;;;10.9;;
37365;SDS011;23239;51.504;7.456;2023-09-12T05:51:00;14.2;;;10.9;;
37365;SDS011;23239;51.504;7.456;2023-09-12T05:52:00;14.2;;;10.9;;
37365;SDS011;23239;51.504;7.456;2023-09-12T05:53:00;14.4;;;11.6;;
37365;SDS011;23239;51.504;7.456;2023-09-12T05:54:00;14.4;;;11.6;;
37365;SDS011;23239;51.504;7.456;2023-09-12T05:55:00;14.4;;;11.6;;
37365;SDS011;23239;51.504;7.456;2023-09-12T05:56:00;14.4;;;11.6;;
37365;SDS011;23239;51.504;7.456;2023-09-12T05:57:00;14.4;;;11.6;;
37365;SDS011;23239;51.504;7.456;2023-09-12T05:58:00;15.6;;;11.5;;
37365;SDS011;23239;51.504;7.456;2023-09-12T05:59:00;15.6;;;11.5;;
37365;SDS011;23239;51.504;7.456;2023-09-12T06:00:00;15.6;;;11.5;;
37365;SDS011;23239;51.504;7.456;2023-09-12T06:01:00;15.6;;;11.5;;
37365;SDS011;23239;51.504;7.456;2023-09-12T06:02:00;15.6;;;11.5;;
37365;SDS011;23239;51.504;7.456;2023-09-12T06:03:00;33.4;;;16.9;;
37365;SDS011;23239;51.504;7.456;2023-09-12T06:04:00;33.4;;;16.9;;
37365;SDS011;23239;51.504;7.456;2023-09-12T06:05:00;33.4;;;16.9;;
37365;SDS011;23239;51.504;7.456;2023-09-12T06:06:00;33.4;;;16.9;;
37365;SDS011;23239;51.504;7.456;2023-09-12T06:07:00;33.4;;;16.9;;